Time;durP1;ratioP1;P1;durP2;ratioP2;P2;SDS_P1;SDS_P2;PMS_P1;PMS_P2;Temp;Humidity;BMP_temperature;BMP_pressure;BME280_temperature;BME280_humidity;BME280_pressure;Samples;Min_cycle;Max_cycle;Signal;HPM_P1;HPM_P2
2022/07/10 00:01:20;;;;;;;10.40;6.60;;;;;;;14.44;74.56;98906.62;2172759;82;21000;-82
2022/07/10 00:04:20;;;;;;;7.97;6.20;;;;;;;14.43;74.34;98901.38;2172122;82;20976;-81
2022/07/10 00:07:20;;;;;;;9.93;6.25;;;;;;;14.44;74.37;98904.44;2172041;82;20962;-80
2022/07/10 00:10:21;;;;;;;8.55;5.78;;;;;;;14.40;74.40;98907.47;2172247;82;20953;-80
2022/07/10 00:13:21;;;;;;;9.63;6.70;;;;;;;14.37;74.69;98903.98;2172574;82;20946;-81
2022/07/10 00:16:22;;;;;;;9.60;5.90;;;;;;;14.32;74.69;98900.92;2172680;82;20964;-81
2022/07/10 00:19:22;;;;;;;7.45;6.30;;;;;;;14.30;74.90;98897.87;2173221;82;21447;-80
2022/07/10 00:22:22;;;;;;;11.43;6.12;;;;;;;14.27;74.96;98889.56;2172941;82;20988;-80
2022/07/10 00:25:23;;;;;;;7.40;6.05;;;;;;;14.27;75.06;98877.75;2173187;82;20992;-81
2022/07/10 00:28:24;;;;;;;6.95;4.87;;;;;;;14.27;75.05;98874.25;2173268;82;21313;-82
2022/07/10 00:31:24;;;;;;;7.70;5.60;;;;;;;14.25;75.00;98869.44;2173327;82;20997;-81
2022/07/10 00:34:24;;;;;;;9.43;6.92;;;;;;;14.20;75.06;98873.39;2173050;82;20949;-81
2022/07/10 00:37:24;;;;;;;7.95;7.15;;;;;;;14.15;75.61;98870.34;2173384;82;21352;-81
2022/07/10 00:40:25;;;;;;;6.97;4.92;;;;;;;14.06;75.71;98869.91;2173199;82;21013;-80
2022/07/10 00:43:25;;;;;;;5.50;4.97;;;;;;;14.02;76.32;98864.23;2173182;82;20981;-81
2022/07/10 00:46:26;;;;;;;8.30;6.40;;;;;;;13.95;76.37;98857.25;2173185;82;21355;-81
2022/07/10 00:49:26;;;;;;;8.05;7.25;;;;;;;13.85;76.59;98855.04;2173124;82;20967;-81
2022/07/10 00:52:26;;;;;;;8.33;6.33;;;;;;;13.81;76.45;98849.36;2180791;81;20960;-81
2022/07/10 00:55:27;;;;;;;6.70;5.55;;;;;;;13.80;76.82;98850.23;2189160;81;20960;-81
2022/07/10 00:58:27;;;;;;;7.15;4.42;;;;;;;13.77;76.64;98845.44;2188989;81;21320;-81
2022/07/10 01:01:28;;;;;;;6.58;5.33;;;;;;;13.75;76.83;98849.80;2188856;81;20955;-82
2022/07/10 01:04:28;;;;;;;8.05;5.20;;;;;;;13.70;77.01;98843.25;2188716;81;20971;-82
2022/07/10 01:07:29;;;;;;;6.15;4.92;;;;;;;13.69;77.04;98848.06;2188652;81;21297;-81
2022/07/10 01:10:29;;;;;;;7.72;5.70;;;;;;;13.62;76.44;98836.70;2188920;81;20956;-81
2022/07/10 01:13:29;;;;;;;6.62;4.30;;;;;;;13.49;76.57;98831.45;2189302;81;20999;-82
2022/07/10 01:16:30;;;;;;;10.28;4.42;;;;;;;13.35;76.80;98838.02;2189959;81;20932;-81
2022/07/10 01:19:30;;;;;;;8.95;4.00;;;;;;;13.20;76.81;98829.70;2189766;81;20952;-81
2022/07/10 01:22:30;;;;;;;5.42;3.90;;;;;;;13.06;77.17;98828.77;2189618;81;21003;-81
2022/07/10 01:25:31;;;;;;;6.45;3.98;;;;;;;12.90;77.49;98823.91;2189572;81;21414;-81
2022/07/10 01:28:31;;;;;;;7.33;4.05;;;;;;;12.83;77.89;98817.34;2189587;81;21355;-80
2022/07/10 01:31:32;;;;;;;5.50;3.98;;;;;;;12.73;78.01;98821.68;2189740;81;20945;-80
2022/07/10 01:34:32;;;;;;;7.33;4.12;;;;;;;12.65;78.19;98824.28;2189809;81;20976;-81
2022/07/10 01:37:32;;;;;;;5.80;4.08;;;;;;;12.53;78.44;98821.61;2189697;81;21379;-80
2022/07/10 01:40:33;;;;;;;6.28;3.92;;;;;;;12.46;78.74;98813.30;2189491;81;21027;-81
2022/07/10 01:43:33;;;;;;;4.67;3.90;;;;;;;12.41;78.86;98813.72;2189471;81;21003;-81
2022/07/10 01:46:34;;;;;;;6.28;3.87;;;;;;;12.34;79.10;98806.70;2189180;81;21028;-81
2022/07/10 01:49:36;;;;;;;5.70;3.87;;;;;;;12.28;79.36;98805.37;2189489;81;20956;-80
2022/07/10 01:52:35;;;;;;;6.80;3.85;;;;;;;12.25;79.43;98804.05;2181853;81;21399;-80
2022/07/10 01:55:36;;;;;;;7.85;4.28;;;;;;;12.21;79.71;98802.29;2173169;82;20965;-81
2022/07/10 01:58:36;;;;;;;4.10;3.50;;;;;;;12.14;79.68;98796.16;2172900;82;20960;-80
2022/07/10 02:01:37;;;;;;;5.30;4.12;;;;;;;12.10;79.85;98797.84;2172701;82;20991;-80
2022/07/10 02:04:43;;;;;;;6.50;3.50;;;;;;;12.11;79.83;98791.75;2173012;82;20987;-80
2022/07/10 02:07:43;;;;;;;6.00;3.63;;;;;;;12.15;80.21;98786.56;2172782;82;21395;-79
2022/07/10 02:10:45;;;;;;;3.85;3.52;;;;;;;12.24;80.43;98786.60;2172856;82;20953;-80
2022/07/10 02:13:45;;;;;;;7.05;5.20;;;;;;;12.35;80.90;98793.62;2172943;82;20977;-80
2022/07/10 02:16:45;;;;;;;8.13;5.40;;;;;;;12.48;81.63;98791.92;2173074;82;21280;-80
2022/07/10 02:19:46;;;;;;;9.98;7.10;;;;;;;12.57;81.23;98788.03;2172656;82;20965;-80
2022/07/10 02:22:46;;;;;;;7.17;5.80;;;;;;;12.66;81.05;98788.05;2172691;82;21048;-80
2022/07/10 02:25:46;;;;;;;7.45;4.95;;;;;;;12.76;81.75;98780.66;2172931;82;21352;-80
2022/07/10 02:28:47;;;;;;;4.83;4.42;;;;;;;12.84;81.56;98783.29;2172959;82;20980;-80
2022/07/10 02:31:47;;;;;;;9.10;6.12;;;;;;;12.83;80.91;98776.30;2172875;82;20968;-80
2022/07/10 02:34:48;;;;;;;10.85;7.08;;;;;;;12.81;80.83;98782.41;2172979;82;21316;-80
2022/07/10 02:37:48;;;;;;;10.28;8.00;;;;;;;12.87;81.46;98786.34;2172614;82;20964;-80
2022/07/10 02:40:48;;;;;;;5.75;5.10;;;;;;;12.95;81.65;98777.62;2172821;82;20948;-85
2022/07/10 02:43:49;;;;;;;11.33;10.28;;;;;;;13.87;92.77;98774.61;2172916;82;21024;-81
2022/07/10 02:46:49;;;;;;;6.00;5.35;;;;;;;15.44;85.90;98765.89;2173094;82;20953;-79
2022/07/10 02:49:50;;;;;;;7.40;6.50;;;;;;;15.36;78.61;98762.90;2173122;82;20925;-80
2022/07/10 02:52:52;;;;;;;11.68;10.48;;;;;;;14.90;77.52;98765.44;2162257;82;21017;-79
2022/07/10 02:55:52;;;;;;;10.78;9.68;;;;;;;14.50;77.68;98763.46;2172343;82;20938;-79
2022/07/10 02:58:53;;;;;;;13.30;11.93;;;;;;;14.30;78.37;98769.21;2171939;82;20956;-80
2022/07/10 03:01:53;;;;;;;13.20;11.57;;;;;;;14.13;78.81;98763.16;2172761;82;21355;-80
2022/07/10 03:04:54;;;;;;;15.05;13.08;;;;;;;13.99;79.27;98766.70;2173192;82;20941;-80
2022/07/10 03:07:54;;;;;;;14.73;13.10;;;;;;;13.91;79.46;98771.54;2173042;82;21012;-79
2022/07/10 03:10:54;;;;;;;15.95;14.47;;;;;;;13.93;79.75;98761.91;2173426;82;21001;-80
2022/07/10 03:13:55;;;;;;;15.65;13.28;;;;;;;13.92;79.98;98761.04;2173557;82;21343;-80
2022/07/10 03:16:55;;;;;;;13.22;10.15;;;;;;;13.92;80.08;98762.35;2173865;82;20988;-80
2022/07/10 03:19:56;;;;;;;15.35;13.90;;;;;;;13.91;80.08;98763.23;2173201;82;20988;-79
2022/07/10 03:22:56;;;;;;;12.55;11.18;;;;;;;13.90;80.19;98760.17;2173309;82;21087;-81
2022/07/10 03:25:56;;;;;;;13.05;9.73;;;;;;;13.95;80.68;98759.72;2173493;82;20992;-80
2022/07/10 03:28:57;;;;;;;11.93;7.30;;;;;;;13.94;80.37;98756.66;2173163;82;21376;-80
2022/07/10 03:31:57;;;;;;;9.75;7.97;;;;;;;13.96;80.81;98754.91;2173313;82;20953;-80
2022/07/10 03:34:58;;;;;;;9.73;7.03;;;;;;;13.95;81.36;98753.16;2173431;82;20964;-81
2022/07/10 03:37:58;;;;;;;9.63;6.83;;;;;;;13.94;81.56;98751.41;2173347;82;21344;-80
2022/07/10 03:40:58;;;;;;;10.60;6.85;;;;;;;13.94;81.51;98747.47;2173522;82;20960;-80
2022/07/10 03:43:59;;;;;;;9.23;6.62;;;;;;;13.96;82.52;98744.41;2173439;82;21336;-79
2022/07/10 03:47:00;;;;;;;10.00;6.78;;;;;;;13.97;82.38;98743.53;2173477;82;20984;-80
2022/07/10 03:50:00;;;;;;;7.37;6.60;;;;;;;13.98;82.64;98742.65;2172970;82;21400;-81
2022/07/10 03:53:00;;;;;;;8.85;6.90;;;;;;;13.94;82.46;98729.55;2173006;80;21376;-80
2022/07/10 03:56:01;;;;;;;7.95;6.50;;;;;;;13.92;83.10;98727.36;2173418;82;20917;-81
2022/07/10 03:59:01;;;;;;;8.53;6.78;;;;;;;13.92;83.20;98734.80;2173566;82;20917;-81
2022/07/10 04:02:02;;;;;;;9.23;7.17;;;;;;;13.92;83.86;98741.80;2173692;82;21009;-80
2022/07/10 04:05:02;;;;;;;12.47;6.80;;;;;;;13.82;84.12;98746.16;2173250;82;21756;-81
2022/07/10 04:08:02;;;;;;;8.35;6.55;;;;;;;13.79;83.96;98757.11;2173358;82;20913;-80
2022/07/10 04:11:03;;;;;;;11.12;8.75;;;;;;;13.76;85.16;98766.30;2173419;82;20952;-80
2022/07/10 04:14:03;;;;;;;9.25;8.23;;;;;;;13.72;86.24;98771.98;2173245;82;20957;-80
2022/07/10 04:17:03;;;;;;;11.57;8.18;;;;;;;13.74;87.24;98776.80;2173145;82;20952;-81
2022/07/10 04:20:04;;;;;;;12.25;7.25;;;;;;;13.66;87.36;98775.94;2173164;82;20993;-81
2022/07/10 04:23:04;;;;;;;10.70;7.25;;;;;;;13.59;86.76;98771.14;2172720;81;21051;-82
2022/07/10 04:26:05;;;;;;;12.78;11.45;;;;;;;13.54;87.47;98766.33;2172698;82;20937;-81
2022/07/10 04:29:05;;;;;;;9.55;8.65;;;;;;;13.55;88.06;98771.14;2172889;82;21033;-82
2022/07/10 04:32:06;;;;;;;6.65;6.03;;;;;;;13.53;88.32;98771.58;2172842;82;21360;-83
2022/07/10 04:35:06;;;;;;;11.43;10.30;;;;;;;13.48;88.52;98759.78;2171596;82;20997;-82
2022/07/10 04:38:06;;;;;;;5.72;5.20;;;;;;;13.49;88.23;98755.41;2171859;82;20929;-81
2022/07/10 04:41:07;;;;;;;8.23;7.47;;;;;;;13.53;89.48;98745.36;2172173;82;21004;-81
2022/07/10 04:44:07;;;;;;;11.60;10.15;;;;;;;13.53;88.45;98747.98;2171931;82;21412;-81
2022/07/10 04:47:08;;;;;;;10.08;9.00;;;;;;;13.56;88.60;98751.47;2171765;82;20901;-82
2022/07/10 04:50:08;;;;;;;12.43;11.12;;;;;;;13.63;89.06;98745.78;2171696;82;20930;-80
2022/07/10 04:53:08;;;;;;;15.55;14.07;;;;;;;13.72;88.69;98739.20;2171279;82;21044;-82
2022/07/10 04:56:09;;;;;;;12.82;11.65;;;;;;;13.83;88.92;98743.98;2171013;82;20933;-81
2022/07/10 04:59:09;;;;;;;8.70;7.90;;;;;;;13.93;88.69;98743.55;2171709;82;20984;-83
2022/07/10 05:02:10;;;;;;;9.13;7.08;;;;;;;14.03;89.24;98746.13;2171675;82;21051;-81
2022/07/10 05:05:10;;;;;;;10.28;9.38;;;;;;;14.09;88.58;98736.05;2171016;82;21441;-80
2022/07/10 05:08:10;;;;;;;13.95;11.90;;;;;;;14.15;88.73;98737.34;2172601;82;20968;-83
2022/07/10 05:11:11;;;;;;;13.28;12.07;;;;;;;14.26;88.36;98731.59;2172923;82;20965;-83
2022/07/10 05:14:11;;;;;;;14.85;13.43;;;;;;;14.33;88.40;98729.38;2172438;82;21335;-82
2022/07/10 05:17:12;;;;;;;14.33;12.47;;;;;;;14.40;88.68;98726.28;2171842;82;21359;-83
2022/07/10 05:20:12;;;;;;;19.00;14.05;;;;;;;14.45;88.53;98721.91;2172384;82;20977;-83
2022/07/10 05:23:12;;;;;;;15.78;14.33;;;;;;;14.50;88.86;98728.45;2172092;82;21000;-80
2022/07/10 05:26:13;;;;;;;14.85;8.95;;;;;;;14.43;88.54;98726.30;2172131;82;21004;-80
2022/07/10 05:29:13;;;;;;;9.63;8.20;;;;;;;14.31;89.20;98732.45;2172582;82;20969;-83
2022/07/10 05:32:14;;;;;;;10.72;7.40;;;;;;;14.18;89.60;98739.95;2173042;82;20952;-81
2022/07/10 05:35:14;;;;;;;7.03;4.58;;;;;;;14.08;90.17;98728.18;2172700;81;21348;-81
2022/07/10 05:38:15;;;;;;;5.08;4.10;;;;;;;13.94;89.20;98736.11;2172929;82;20964;-82
2022/07/10 05:41:15;;;;;;;5.30;3.20;;;;;;;13.83;88.02;98736.55;2172799;82;21379;-84
2022/07/10 05:44:19;;;;;;;3.15;2.55;;;;;;;13.73;87.72;98747.50;2172538;82;21046;-86
2022/07/10 05:47:16;;;;;;;2.83;2.60;;;;;;;13.57;88.00;98744.47;2172870;82;20936;-86
2022/07/10 05:50:17;;;;;;;5.17;3.27;;;;;;;13.46;88.67;98744.49;2172604;82;21360;-85
2022/07/10 05:53:19;;;;;;;4.45;3.10;;;;;;;13.39;89.53;98742.31;2178376;81;21067;-87
2022/07/10 05:56:17;;;;;;;5.92;2.50;;;;;;;13.30;90.99;98749.31;2189238;81;21328;-87
2022/07/10 05:59:18;;;;;;;4.20;3.60;;;;;;;13.22;92.29;98751.94;2188891;81;20983;-87
2022/07/10 06:02:19;;;;;;;8.15;3.47;;;;;;;13.16;93.16;98753.66;2189244;81;21024;-86
2022/07/10 06:05:19;;;;;;;6.10;4.00;;;;;;;13.08;93.71;98755.84;2188910;81;21356;-85
2022/07/10 06:08:19;;;;;;;4.47;3.95;;;;;;;13.01;94.00;98757.14;2188492;81;20964;-88
2022/07/10 06:11:19;;;;;;;4.78;4.00;;;;;;;12.98;94.00;98768.46;2188712;81;21001;-85
2022/07/10 06:14:20;;;;;;;5.42;4.72;;;;;;;12.94;94.60;98769.77;2188742;81;21312;-85
2022/07/10 06:17:20;;;;;;;4.85;4.37;;;;;;;12.90;95.55;98768.02;2187969;81;20952;-86
2022/07/10 06:20:21;;;;;;;6.10;4.33;;;;;;;12.86;94.84;98778.05;2188519;81;20972;-85
2022/07/10 06:23:21;;;;;;;5.17;4.40;;;;;;;12.86;95.20;98778.92;2188801;81;21038;-86
2022/07/10 06:26:21;;;;;;;5.53;4.45;;;;;;;12.86;95.17;98783.29;2188503;81;21371;-86
2022/07/10 06:29:22;;;;;;;6.80;4.65;;;;;;;12.92;95.04;98785.48;2188749;81;21000;-85
2022/07/10 06:32:24;;;;;;;5.50;4.70;;;;;;;13.03;94.65;98790.77;2189503;81;20972;-86
2022/07/10 06:35:23;;;;;;;6.30;4.35;;;;;;;13.10;94.02;98787.28;2189517;81;21382;-85
2022/07/10 06:38:23;;;;;;;4.45;4.03;;;;;;;13.20;93.89;98794.75;2189369;81;20980;-86
2022/07/10 06:41:23;;;;;;;6.12;4.40;;;;;;;13.28;93.74;98795.19;2189577;81;20920;-87
2022/07/10 06:44:24;;;;;;;6.78;4.58;;;;;;;13.39;93.01;98793.44;2189347;81;21351;-85
2022/07/10 06:50:43;;;;;;;4.50;3.22;;;;;;;13.51;92.21;98797.80;2189396;81;20953;-86
2022/07/10 06:53:43;;;;;;;8.30;3.20;;;;;;;13.50;91.22;98788.63;2182175;80;21439;-85
2022/07/10 06:56:44;;;;;;;5.15;3.02;;;;;;;13.59;90.71;98797.80;2172193;82;20984;-83
2022/07/10 06:59:44;;;;;;;5.00;3.47;;;;;;;13.64;90.56;98797.36;2171678;82;20965;-83
2022/07/10 07:02:44;;;;;;;7.90;3.17;;;;;;;13.71;90.60;98808.27;2172563;82;21366;-83
2022/07/10 07:05:45;;;;;;;5.10;2.90;;;;;;;13.72;89.89;98804.77;2172666;82;20945;-83
2022/07/10 07:08:45;;;;;;;4.55;2.95;;;;;;;13.81;90.16;98798.64;2172644;82;20972;-84
2022/07/10 07:11:46;;;;;;;3.58;2.85;;;;;;;13.99;89.06;98798.20;2172800;82;20988;-84
2022/07/10 07:14:46;;;;;;;5.33;3.10;;;;;;;14.21;88.30;98789.81;2172870;82;20983;-84
2022/07/10 07:18:08;;;;;;;7.58;2.75;;;;;;;14.38;88.27;98791.06;2172504;82;20977;-83
2022/07/10 07:24:18;;;;;;;4.65;2.77;;;;;;;14.77;87.27;98797.06;2172949;81;21032;-82
2022/07/10 07:27:18;;;;;;;6.03;3.40;;;;;;;14.92;86.43;98804.85;2172453;82;20996;-83
2022/07/10 07:30:18;;;;;;;6.12;2.80;;;;;;;14.96;85.66;98807.45;2172887;82;20980;-83
2022/07/10 07:33:19;;;;;;;5.12;3.20;;;;;;;15.02;85.47;98811.80;2172764;82;21064;-83
2022/07/10 07:36:19;;;;;;;3.70;2.90;;;;;;;14.92;84.94;98810.11;2172803;82;21019;-84
2022/07/10 07:39:20;;;;;;;5.97;3.12;;;;;;;14.90;86.50;98814.50;2172673;82;21395;-84
2022/07/10 07:42:20;;;;;;;3.67;3.35;;;;;;;14.98;86.80;98819.27;2172072;82;21372;-83
2022/07/10 07:45:21;;;;;;;5.10;3.50;;;;;;;14.98;85.00;98816.64;2172430;82;21012;-83
2022/07/10 07:48:21;;;;;;;4.85;3.52;;;;;;;14.93;85.09;98813.17;2172338;82;20949;-84
2022/07/10 07:51:21;;;;;;;4.85;3.70;;;;;;;14.94;85.02;98808.34;2172278;82;20944;-82
2022/07/10 07:54:22;;;;;;;7.20;3.87;;;;;;;15.06;85.12;98814.84;2181585;81;20972;-81
2022/07/10 07:57:22;;;;;;;5.05;3.98;;;;;;;15.61;84.02;98803.95;2189025;81;20948;-82
2022/07/10 08:00:23;;;;;;;6.47;4.30;;;;;;;16.03;82.54;98797.83;2188904;81;20916;-84
2022/07/10 08:03:23;;;;;;;5.08;3.60;;;;;;;16.43;79.97;98800.88;2188290;81;21007;-82
2022/07/10 08:06:23;;;;;;;9.65;3.30;;;;;;;16.99;78.49;98804.13;2188507;81;21035;-84
2022/07/10 08:09:24;;;;;;;5.72;3.40;;;;;;;17.20;76.85;98802.49;2189718;81;21790;-83
2022/07/10 08:12:24;;;;;;;5.45;3.77;;;;;;;17.12;74.21;98804.37;2189204;81;21004;-82
2022/07/10 08:15:25;;;;;;;5.35;3.08;;;;;;;17.00;75.65;98803.23;2189292;81;20948;-83
2022/07/10 08:18:25;;;;;;;5.08;2.55;;;;;;;17.01;74.80;98806.75;2189567;81;20991;-84
2022/07/10 08:21:26;;;;;;;5.90;2.77;;;;;;;17.15;72.03;98809.61;2189098;81;21023;-82
2022/07/10 08:24:26;;;;;;;4.58;2.60;;;;;;;17.23;72.41;98798.06;2188925;81;21011;-82
2022/07/10 08:27:26;;;;;;;10.70;2.55;;;;;;;17.10;72.24;98798.25;2189615;81;21004;-83
2022/07/10 08:30:27;;;;;;;5.12;2.90;;;;;;;17.05;72.69;98809.77;2189611;81;20968;-84
2022/07/10 08:33:27;;;;;;;4.95;2.02;;;;;;;17.20;72.80;98797.22;2189996;81;20991;-82
2022/07/10 08:36:27;;;;;;;4.67;2.05;;;;;;;17.48;71.08;98806.05;2189209;81;20992;-84
2022/07/10 08:39:28;;;;;;;8.45;2.90;;;;;;;17.46;68.89;98810.02;2189832;81;20956;-81
2022/07/10 08:42:28;;;;;;;8.03;2.40;;;;;;;17.36;70.78;98807.56;2189727;81;20968;-83
2022/07/10 08:45:29;;;;;;;7.17;1.90;;;;;;;17.35;68.51;98808.45;2189414;81;20937;-84
2022/07/10 08:48:29;;;;;;;6.78;2.27;;;;;;;17.78;67.08;98805.55;2189209;81;20968;-83
2022/07/10 08:51:29;;;;;;;5.62;1.75;;;;;;;17.88;64.75;98801.42;2189732;81;20948;-82
2022/07/10 08:54:30;;;;;;;4.47;2.00;;;;;;;17.92;63.33;98793.42;2180788;80;21045;-83
2022/07/10 08:57:31;;;;;;;10.90;2.65;;;;;;;18.15;62.64;98795.17;2173383;82;21257;-83
2022/07/10 09:00:31;;;;;;;4.80;1.80;;;;;;;18.12;58.16;98810.21;2172579;82;20929;-84
2022/07/10 09:03:31;;;;;;;5.65;1.30;;;;;;;18.48;60.14;98794.11;2172030;82;21317;-81
2022/07/10 09:06:32;;;;;;;6.47;1.77;;;;;;;18.76;57.09;98799.71;2172284;82;20981;-81
2022/07/10 09:09:32;;;;;;;5.40;2.30;;;;;;;18.58;54.47;98809.33;2172725;82;21087;-82
2022/07/10 09:12:32;;;;;;;3.92;1.72;;;;;;;18.38;55.94;98800.03;2172331;82;21305;-83
2022/07/10 09:15:34;;;;;;;4.00;1.70;;;;;;;18.29;57.97;98800.22;2172927;82;20898;-82
2022/07/10 09:18:33;;;;;;;8.10;2.15;;;;;;;18.24;57.47;98801.21;2173028;82;20941;-81
2022/07/10 09:21:34;;;;;;;6.47;1.82;;;;;;;18.21;57.58;98791.58;2173024;82;21597;-83
2022/07/10 09:24:34;;;;;;;3.50;1.90;;;;;;;18.50;55.87;98797.59;2173087;82;21047;-82
2022/07/10 09:27:34;;;;;;;4.28;1.50;;;;;;;18.94;55.56;98784.76;2173173;82;20988;-82
2022/07/10 09:30:35;;;;;;;4.60;1.37;;;;;;;19.49;54.70;98785.25;2172872;82;20960;-82
2022/07/10 09:33:37;;;;;;;3.47;1.42;;;;;;;19.50;51.99;98775.95;2172984;82;21363;-82
2022/07/10 09:36:36;;;;;;;5.95;1.60;;;;;;;19.70;54.19;98777.66;2172781;82;21036;-81
2022/07/10 09:39:37;;;;;;;1.85;1.22;;;;;;;19.92;51.66;98779.74;2172876;82;20945;-82
2022/07/10 09:42:36;;;;;;;5.37;1.47;;;;;;;20.26;49.11;98771.31;2172305;82;21412;-82
2022/07/10 09:45:37;;;;;;;4.47;1.60;;;;;;;20.68;47.70;98767.02;2172609;82;21008;-81
2022/07/10 09:48:37;;;;;;;4.85;1.32;;;;;;;20.99;47.80;98765.66;2173013;82;20957;-82
2022/07/10 09:51:38;;;;;;;5.45;1.80;;;;;;;20.49;47.55;98773.33;2172111;82;20928;-82
2022/07/10 09:54:38;;;;;;;6.78;1.47;;;;;;;20.04;48.25;98766.20;2180606;81;20984;-83
2022/07/10 09:57:38;;;;;;;2.90;1.27;;;;;;;19.47;48.06;98817.05;2189425;81;21048;-81
2022/07/10 10:00:40;;;;;;;7.95;1.32;;;;;;;18.78;48.80;98787.33;2189340;81;21256;-81
2022/07/10 10:03:39;;;;;;;3.77;1.52;;;;;;;18.54;51.40;98788.69;2189342;81;20995;-82
2022/07/10 10:06:40;;;;;;;2.98;1.25;;;;;;;18.57;50.83;98785.98;2188954;81;21019;-81
2022/07/10 10:09:40;;;;;;;3.50;1.20;;;;;;;18.69;49.90;98788.85;2188836;81;21379;-80
2022/07/10 10:12:40;;;;;;;4.35;1.37;;;;;;;18.79;49.91;98793.03;2188895;81;20996;-84
2022/07/10 10:15:41;;;;;;;2.92;1.27;;;;;;;18.72;50.28;98795.39;2189323;81;21003;-84
2022/07/10 10:20:36;;;;;;;3.17;1.42;;;;;;;18.43;49.39;98803.91;2188215;81;21655;-83
2022/07/10 10:21:42;;;;;;;11.88;1.65;;;;;;;18.37;50.19;98800.94;2188235;81;20935;-83
2022/07/10 10:24:42;;;;;;;3.75;1.20;;;;;;;18.42;50.37;98789.82;2187836;81;20976;-84
2022/07/10 10:27:42;;;;;;;4.30;1.42;;;;;;;18.38;50.69;98794.75;2187859;81;21366;-84
2022/07/10 10:30:43;;;;;;;5.72;2.30;;;;;;;18.27;51.53;98790.58;2187538;81;20999;-87
2022/07/10 10:33:45;;;;;;;5.30;1.57;;;;;;;18.21;51.72;98795.98;2187897;81;20998;-84
2022/07/10 10:36:47;;;;;;;5.10;1.98;;;;;;;18.14;52.85;98791.24;2188319;81;21076;-83
2022/07/10 10:39:47;;;;;;;5.42;2.10;;;;;;;18.23;51.33;98792.41;2188985;81;20972;-83
2022/07/10 10:42:47;;;;;;;5.40;1.47;;;;;;;18.27;52.06;98794.55;2189369;81;20983;-84
2022/07/10 10:45:48;;;;;;;5.83;1.50;;;;;;;18.22;50.95;98789.35;2189597;81;20972;-83
2022/07/10 10:48:48;;;;;;;4.70;1.35;;;;;;;18.31;51.94;98792.27;2189469;81;20988;-85
2022/07/10 10:51:48;;;;;;;4.53;1.60;;;;;;;18.49;51.52;98779.13;2189631;81;21012;-81
2022/07/10 10:54:49;;;;;;;8.38;1.60;;;;;;;18.68;49.10;98767.28;2189501;80;21012;-83
2022/07/10 10:57:51;;;;;;;3.72;1.15;;;;;;;19.16;49.84;98761.80;2189742;81;20988;-84
2022/07/10 11:00:50;;;;;;;7.42;1.47;;;;;;;19.20;48.28;98767.44;2189622;81;20956;-84
2022/07/10 11:03:50;;;;;;;5.00;1.60;;;;;;;19.19;46.61;98774.95;2190280;81;20972;-84
2022/07/10 11:06:54;;;;;;;4.22;1.72;;;;;;;19.26;46.93;98772.13;2190007;81;21020;-83
2022/07/10 11:09:54;;;;;;;4.70;1.50;;;;;;;19.27;47.86;98779.16;2189970;81;20936;-83
2022/07/10 11:12:54;;;;;;;4.85;1.77;;;;;;;19.04;48.09;98781.00;2189983;81;20971;-85
2022/07/10 11:15:57;;;;;;;3.30;1.27;;;;;;;19.13;48.89;98777.75;2190198;81;20976;-84
2022/07/10 11:18:55;;;;;;;3.85;1.40;;;;;;;18.87;47.89;98780.52;2190803;81;20995;-84
2022/07/10 11:21:56;;;;;;;8.20;1.75;;;;;;;18.33;49.24;98777.25;2190649;81;21395;-83
2022/07/10 11:24:56;;;;;;;4.90;1.57;;;;;;;18.39;49.64;98770.52;2190602;81;21016;-84
2022/07/10 11:27:57;;;;;;;4.58;1.10;;;;;;;18.51;49.19;98774.22;2190225;81;20940;-82
2022/07/10 11:30:57;;;;;;;4.35;1.52;;;;;;;18.87;49.68;98759.81;2190203;81;20976;-81
2022/07/10 11:33:57;;;;;;;4.95;1.40;;;;;;;19.16;47.62;98744.61;2190153;81;21351;-82
2022/07/10 11:36:58;;;;;;;4.50;1.60;;;;;;;19.69;49.45;98752.09;2189832;81;21047;-85
2022/07/10 11:39:58;;;;;;;2.45;1.40;;;;;;;19.91;45.62;98751.06;2190155;81;20952;-85
2022/07/10 11:43:00;;;;;;;2.83;1.20;;;;;;;19.61;48.16;98750.55;2190368;81;21007;-84
2022/07/10 11:46:00;;;;;;;5.97;1.65;;;;;;;19.15;47.88;98752.13;2190546;81;20925;-84
2022/07/10 11:48:59;;;;;;;2.87;1.32;;;;;;;18.94;49.11;98756.98;2190419;81;21324;-84
2022/07/10 11:52:00;;;;;;;6.22;1.98;;;;;;;18.68;49.18;98764.64;2190535;81;20972;-84
2022/07/10 11:55:00;;;;;;;6.08;1.37;;;;;;;18.43;49.79;98771.73;2190290;81;20984;-84
2022/07/10 11:58:01;;;;;;;5.87;1.82;;;;;;;18.28;49.87;98777.34;2190204;81;20960;-85
2022/07/10 12:01:02;;;;;;;2.20;1.05;;;;;;;17.97;50.28;98766.92;2190166;81;20960;-84
2022/07/10 12:04:02;;;;;;;6.65;1.40;;;;;;;18.05;51.45;98774.25;2190322;81;20980;-83
2022/07/10 12:07:02;;;;;;;5.47;1.47;;;;;;;18.41;51.72;98769.58;2190240;81;21015;-85
2022/07/10 12:10:02;;;;;;;4.80;1.90;;;;;;;18.57;50.98;98769.26;2190002;81;21383;-84
2022/07/10 12:13:03;;;;;;;5.65;1.67;;;;;;;18.76;50.39;98770.62;2190315;81;20971;-85
2022/07/10 12:16:03;;;;;;;5.80;1.80;;;;;;;18.77;48.79;98786.91;2190084;81;21408;-84
2022/07/10 12:19:04;;;;;;;4.78;1.37;;;;;;;18.80;49.38;98774.94;2190171;81;20952;-83
2022/07/10 12:22:04;;;;;;;5.80;1.37;;;;;;;19.04;49.67;98767.77;2190397;81;21003;-83
2022/07/10 12:25:05;;;;;;;4.30;1.80;;;;;;;19.39;48.93;98781.50;2190051;81;21028;-84
2022/07/10 12:28:05;;;;;;;2.65;1.20;;;;;;;19.73;48.30;98777.58;2189471;81;20983;-82
2022/07/10 12:31:06;;;;;;;2.58;1.00;;;;;;;19.85;46.72;98788.77;2189825;81;20925;-83
2022/07/10 12:34:07;;;;;;;3.45;1.10;;;;;;;19.97;46.30;98779.20;2189596;81;20992;-83
2022/07/10 12:37:06;;;;;;;3.98;1.45;;;;;;;19.91;45.87;98778.88;2189693;81;20992;-83
2022/07/10 12:40:11;;;;;;;6.80;1.60;;;;;;;19.98;47.40;98776.50;2189413;81;20952;-82
2022/07/10 12:43:07;;;;;;;2.70;1.12;;;;;;;20.07;46.17;98775.39;2189808;81;21003;-84
2022/07/10 12:46:07;;;;;;;7.00;1.30;;;;;;;19.95;45.51;98791.16;2189506;81;21320;-82
2022/07/10 12:49:08;;;;;;;1.90;0.72;;;;;;;19.91;45.25;98783.30;2189555;81;20952;-84
2022/07/10 12:52:08;;;;;;;2.37;1.30;;;;;;;19.83;44.71;98783.51;2190029;81;21028;-83
2022/07/10 12:55:09;;;;;;;2.70;1.40;;;;;;;19.48;44.72;98783.06;2189683;80;21435;-84
2022/07/10 12:58:09;;;;;;;3.67;0.93;;;;;;;19.28;45.82;98776.06;2189771;81;20976;-84
2022/07/10 13:01:09;;;;;;;3.58;1.50;;;;;;;19.40;46.52;98785.89;2189808;81;21476;-83
2022/07/10 13:04:10;;;;;;;2.70;0.80;;;;;;;19.18;45.93;98787.31;2189395;81;21375;-83
2022/07/10 13:07:10;;;;;;;2.17;0.85;;;;;;;18.74;45.50;98786.98;2189245;81;21011;-83
2022/07/10 13:10:10;;;;;;;1.77;1.00;;;;;;;18.80;47.56;98784.65;2189571;81;21063;-83
2022/07/10 13:13:11;;;;;;;3.62;0.90;;;;;;;19.14;46.94;98783.00;2189543;81;20952;-80
2022/07/10 13:16:11;;;;;;;2.95;0.93;;;;;;;19.59;45.70;98775.74;2189415;81;20952;-83
2022/07/10 13:19:12;;;;;;;3.80;0.93;;;;;;;20.33;44.13;98779.50;2189588;81;20956;-83
2022/07/10 13:22:12;;;;;;;1.52;0.80;;;;;;;20.40;42.05;98777.58;2189341;81;20999;-82
2022/07/10 13:25:12;;;;;;;1.95;1.00;;;;;;;20.14;42.60;98767.68;2189284;81;21029;-82
2022/07/10 13:28:13;;;;;;;6.37;1.10;;;;;;;20.19;43.91;98781.67;2189387;81;20980;-81
2022/07/10 13:31:13;;;;;;;3.12;1.30;;;;;;;20.00;41.83;98775.14;2189443;81;20999;-86
2022/07/10 13:34:14;;;;;;;0.88;0.80;;;;;;;19.68;44.20;98788.75;2189342;81;21312;-83
2022/07/10 13:37:14;;;;;;;3.05;1.05;;;;;;;19.23;46.16;98790.73;2189116;81;21372;-82
2022/07/10 13:40:15;;;;;;;2.17;0.80;;;;;;;18.53;49.29;98823.95;2189355;81;20972;-82
2022/07/10 13:43:19;;;;;;;5.58;0.70;;;;;;;18.00;52.48;98817.05;2189164;81;20995;-82
2022/07/10 13:46:18;;;;;;;1.50;0.90;;;;;;;17.28;54.68;98819.52;2189813;81;20929;-81
2022/07/10 13:49:19;;;;;;;1.62;1.00;;;;;;;16.86;57.55;98829.80;2189325;81;21004;-83
2022/07/10 13:52:19;;;;;;;3.25;1.00;;;;;;;16.48;57.69;98831.58;2189409;81;21019;-83
2022/07/10 13:55:19;;;;;;;1.35;1.12;;;;;;;16.28;57.27;98823.01;2189299;81;21015;-82
2022/07/10 13:58:21;;;;;;;1.82;1.12;;;;;;;16.22;58.81;98822.63;2189481;81;21396;-82
2022/07/10 14:01:21;;;;;;;5.30;1.40;;;;;;;16.23;58.77;98828.77;2189326;81;20953;-82
2022/07/10 14:04:21;;;;;;;5.83;4.50;;;;;;;16.27;59.32;98824.34;2189240;81;21008;-83
2022/07/10 14:07:21;;;;;;;15.88;11.73;;;;;;;16.34;59.30;98818.98;2189795;81;20996;-82
2022/07/10 14:10:21;;;;;;;5.42;4.60;;;;;;;16.51;58.93;98817.50;2189552;81;21371;-82
2022/07/10 14:13:22;;;;;;;2.27;1.70;;;;;;;16.73;57.99;98816.36;2189506;81;20964;-83